createdAt,value
2022-11-03T00:01:47.431Z,16.20
2022-11-03T00:04:16.234Z,15.02
2022-11-03T00:06:44.193Z,18.70
2022-11-03T00:09:12.726Z,14.02
2022-11-03T00:11:41.059Z,21.58
2022-11-03T00:14:09.448Z,15.77
2022-11-03T00:16:36.735Z,16.65
2022-11-03T00:19:04.140Z,17.35
2022-11-03T00:21:31.118Z,24.20
2022-11-03T00:23:58.191Z,16.17
2022-11-03T00:26:37.187Z,19.05
2022-11-03T00:29:14.792Z,12.95
2022-11-03T00:31:44.115Z,15.35
2022-11-03T00:34:11.275Z,24.55
2022-11-03T00:36:44.197Z,13.52
2022-11-03T00:39:11.831Z,17.45
2022-11-03T00:41:40.339Z,23.70
2022-11-03T00:44:07.424Z,14.18
2022-11-03T00:46:35.698Z,13.77
2022-11-03T00:49:04.434Z,16.73
2022-11-03T00:51:31.384Z,15.68
2022-11-03T00:54:00.093Z,18.58
2022-11-03T00:56:30.408Z,14.40
2022-11-03T00:58:59.319Z,23.80
2022-11-03T01:01:39.255Z,17.45
2022-11-03T01:04:28.667Z,15.88
2022-11-03T01:06:56.676Z,15.48
2022-11-03T01:09:33.708Z,19.85
2022-11-03T01:12:01.744Z,17.38
2022-11-03T01:14:35.531Z,12.88
2022-11-03T01:17:06.644Z,17.00
2022-11-03T01:19:33.609Z,16.27
2022-11-03T01:22:00.610Z,15.70
2022-11-03T01:24:27.557Z,17.05
2022-11-03T01:26:54.518Z,25.63
2022-11-03T01:29:21.407Z,18.98
2022-11-03T01:31:49.081Z,17.25
2022-11-03T01:34:17.742Z,17.83
2022-11-03T01:36:45.445Z,17.52
2022-11-03T01:39:17.315Z,21.70
2022-11-03T01:41:47.290Z,23.80
2022-11-03T01:44:14.089Z,17.27
2022-11-03T01:47:21.897Z,14.80
2022-11-03T01:49:51.474Z,21.75
2022-11-03T01:52:36.760Z,14.85
2022-11-03T01:55:20.029Z,21.80
2022-11-03T01:57:51.656Z,17.30
2022-11-03T02:00:18.576Z,14.48
2022-11-03T02:02:45.967Z,18.02
2022-11-03T02:05:13.757Z,20.65
2022-11-03T02:07:46.555Z,16.75
2022-11-03T02:10:13.600Z,16.55
2022-11-03T02:12:40.634Z,18.20
2022-11-03T02:15:13.429Z,11.82
2022-11-03T02:17:42.271Z,17.67
2022-11-03T02:20:16.661Z,18.05
2022-11-03T02:22:46.609Z,15.40
2022-11-03T02:25:38.620Z,19.27
2022-11-03T02:28:06.388Z,18.85
2022-11-03T02:30:44.162Z,13.82
2022-11-03T02:33:16.511Z,11.40
2022-11-03T02:35:49.023Z,14.82
2022-11-03T02:38:17.373Z,14.18
2022-11-03T02:40:49.346Z,14.05
2022-11-03T02:43:17.746Z,14.10
2022-11-03T02:45:47.137Z,15.68
2022-11-03T02:48:15.936Z,16.48
2022-11-03T02:50:42.814Z,13.45
2022-11-03T02:53:14.045Z,20.17
2022-11-03T02:55:55.466Z,16.20
2022-11-03T02:58:25.532Z,15.25
2022-11-03T03:01:18.847Z,15.00
2022-11-03T03:03:59.625Z,12.25
2022-11-03T03:06:37.012Z,15.20
2022-11-03T03:09:07.212Z,10.68
2022-11-03T03:11:38.852Z,18.33
2022-11-03T03:14:21.136Z,16.03
2022-11-03T03:17:08.146Z,10.27
2022-11-03T03:19:57.389Z,18.67
2022-11-03T03:23:12.639Z,22.80
2022-11-03T03:25:43.767Z,14.93
2022-11-03T03:28:16.349Z,14.57
2022-11-03T03:30:44.585Z,13.35
2022-11-03T03:33:11.591Z,19.67
2022-11-03T03:35:40.775Z,9.10
2022-11-03T03:38:15.881Z,11.52
2022-11-03T03:40:44.514Z,20.73
2022-11-03T03:43:12.939Z,15.50
2022-11-03T03:45:39.965Z,17.67
2022-11-03T03:48:07.787Z,18.20
2022-11-03T03:50:37.855Z,15.80
2022-11-03T03:53:07.062Z,16.88
2022-11-03T03:55:39.166Z,14.60
2022-11-03T03:58:06.971Z,14.77
2022-11-03T04:00:45.363Z,18.83
2022-11-03T04:03:17.789Z,22.38
2022-11-03T04:05:45.467Z,14.77
2022-11-03T04:08:13.695Z,14.02
2022-11-03T04:10:40.653Z,28.08
2022-11-03T04:13:27.951Z,13.93
2022-11-03T04:16:13.551Z,14.13
2022-11-03T04:18:59.153Z,11.73
2022-11-03T04:21:44.631Z,15.38
2022-11-03T04:24:12.751Z,15.95
2022-11-03T04:26:39.607Z,17.23
2022-11-03T04:29:09.766Z,17.83
2022-11-03T04:31:36.969Z,20.10
2022-11-03T04:34:05.380Z,13.70
2022-11-03T04:36:32.214Z,15.48
2022-11-03T04:38:59.367Z,17.42
2022-11-03T04:41:29.978Z,18.33
2022-11-03T04:43:57.634Z,14.40
2022-11-03T04:46:29.541Z,16.92
2022-11-03T04:49:01.157Z,19.75
2022-11-03T04:51:31.550Z,17.27
2022-11-03T04:54:14.256Z,16.40
2022-11-03T04:56:41.433Z,20.98
2022-11-03T04:59:12.918Z,19.67
2022-11-03T05:01:40.061Z,16.73
2022-11-03T05:04:18.388Z,19.58
2022-11-03T05:06:53.092Z,18.75
2022-11-03T05:09:30.293Z,12.02
2022-11-03T05:11:57.172Z,15.45
2022-11-03T05:14:26.844Z,18.38
2022-11-03T05:16:54.902Z,16.25
2022-11-03T05:19:26.196Z,25.50
2022-11-03T05:21:54.991Z,17.50
2022-11-03T05:24:26.170Z,17.30
2022-11-03T05:26:57.942Z,16.63
2022-11-03T05:29:31.758Z,16.65
2022-11-03T05:31:58.901Z,13.82
2022-11-03T05:34:38.062Z,13.15
2022-11-03T05:37:13.591Z,13.75
2022-11-03T05:39:46.312Z,10.60
2022-11-03T05:42:33.327Z,24.05
2022-11-03T05:45:02.282Z,12.38
2022-11-03T05:47:37.389Z,13.35
2022-11-03T05:50:20.583Z,11.20
2022-11-03T05:55:27.748Z,16.73
2022-11-03T05:57:59.324Z,12.35
2022-11-03T06:00:29.938Z,17.65
2022-11-03T06:02:57.120Z,12.13
2022-11-03T06:05:25.208Z,18.85
2022-11-03T06:07:55.856Z,17.95
2022-11-03T06:10:34.377Z,16.33
2022-11-03T06:13:08.186Z,14.57
2022-11-03T06:15:36.034Z,15.23
2022-11-03T06:18:18.897Z,12.30
2022-11-03T06:20:55.000Z,16.83
2022-11-03T06:23:21.972Z,14.20
2022-11-03T06:25:50.431Z,22.80
2022-11-03T06:28:27.166Z,13.50
2022-11-03T06:30:54.174Z,13.77
2022-11-03T06:33:27.533Z,12.82
2022-11-03T06:36:05.487Z,18.08
2022-11-03T06:38:35.054Z,15.27
2022-11-03T06:41:01.916Z,14.40
2022-11-03T06:43:46.981Z,21.48
2022-11-03T06:46:23.732Z,15.90
2022-11-03T06:48:52.510Z,17.05
2022-11-03T06:51:22.331Z,21.52
2022-11-03T06:53:51.111Z,13.73
2022-11-03T06:56:23.809Z,19.45
2022-11-03T06:58:53.090Z,12.95
2022-11-03T07:01:30.804Z,14.73
2022-11-03T07:04:01.356Z,13.00
2022-11-03T07:06:34.997Z,13.07
2022-11-03T07:09:04.967Z,14.27
2022-11-03T07:11:35.594Z,12.90
2022-11-03T07:14:17.135Z,11.13
2022-11-03T07:16:51.326Z,15.05
2022-11-03T07:19:19.315Z,10.15
2022-11-03T07:21:50.518Z,9.20
2022-11-03T07:24:30.609Z,6.35
2022-11-03T07:27:20.986Z,15.45
2022-11-03T07:29:49.369Z,16.92
2022-11-03T07:32:22.389Z,11.60
2022-11-03T07:34:49.939Z,12.70
2022-11-03T07:37:21.513Z,14.90
2022-11-03T07:39:50.906Z,15.30
2022-11-03T07:42:22.578Z,14.25
2022-11-03T07:44:50.276Z,14.25
2022-11-03T07:47:20.620Z,8.95
2022-11-03T07:49:47.760Z,6.80
2022-11-03T07:52:19.195Z,11.77
2022-11-03T07:54:46.338Z,12.52
2022-11-03T07:57:19.224Z,20.10
2022-11-03T07:59:48.807Z,14.05
2022-11-03T08:02:35.760Z,12.35
2022-11-03T08:05:02.996Z,13.35
2022-11-03T08:07:30.260Z,16.98
2022-11-03T08:09:57.274Z,8.30
2022-11-03T08:12:24.431Z,10.48
2022-11-03T08:14:51.665Z,8.70
2022-11-03T08:17:18.603Z,7.40
2022-11-03T08:19:45.674Z,10.98
2022-11-03T08:22:12.522Z,14.55
2022-11-03T08:24:39.496Z,8.45
2022-11-03T08:27:06.363Z,13.60
2022-11-03T08:29:33.764Z,11.90
2022-11-03T08:32:00.665Z,10.23
2022-11-03T08:34:27.561Z,11.23
2022-11-03T08:36:54.400Z,7.82
2022-11-03T08:39:21.319Z,15.70
2022-11-03T08:41:48.246Z,11.15
2022-11-03T08:44:15.168Z,7.90
2022-11-03T08:46:42.043Z,14.73
2022-11-03T08:49:08.928Z,10.80
2022-11-03T08:51:40.104Z,18.35
2022-11-03T08:54:10.375Z,10.45
2022-11-03T08:56:37.271Z,8.48
2022-11-03T08:59:04.403Z,15.50
2022-11-03T09:01:31.368Z,14.13
2022-11-03T09:03:58.345Z,8.43
2022-11-03T09:06:25.407Z,11.77
2022-11-03T09:11:39.255Z,8.10
2022-11-03T09:14:06.459Z,11.48
2022-11-03T09:16:33.380Z,12.68
2022-11-03T09:19:00.220Z,11.93
2022-11-03T09:21:27.021Z,10.45
2022-11-03T09:23:54.019Z,9.52
2022-11-03T09:26:20.891Z,8.50
2022-11-03T09:28:49.528Z,10.48
2022-11-03T09:31:16.734Z,13.45
2022-11-03T09:33:43.798Z,12.70
2022-11-03T09:36:10.800Z,5.65
2022-11-03T09:38:37.648Z,9.60
2022-11-03T09:41:13.552Z,13.95
2022-11-03T09:43:52.541Z,12.43
2022-11-03T09:46:19.738Z,8.43
2022-11-03T09:48:46.758Z,13.80
2022-11-03T09:51:20.579Z,9.52
2022-11-03T09:53:47.689Z,11.75
2022-11-03T09:56:22.630Z,12.73
2022-11-03T09:58:53.995Z,13.57
2022-11-03T10:01:21.232Z,12.88
2022-11-03T10:03:48.260Z,9.82
2022-11-03T10:06:17.203Z,10.63
2022-11-03T10:08:45.540Z,11.18
2022-11-03T10:11:12.839Z,6.65
2022-11-03T10:13:44.131Z,12.68
2022-11-03T10:16:13.612Z,10.77
2022-11-03T10:18:40.738Z,14.27
2022-11-03T10:21:16.418Z,10.57
2022-11-03T10:23:44.202Z,8.05
2022-11-03T10:26:16.562Z,12.60
2022-11-03T10:29:04.467Z,5.43
2022-11-03T10:31:36.573Z,11.30
2022-11-03T10:34:04.608Z,8.60
2022-11-03T10:36:33.457Z,12.27
2022-11-03T10:39:01.974Z,13.52
2022-11-03T10:41:30.760Z,9.43
2022-11-03T10:44:05.926Z,11.43
2022-11-03T10:46:49.594Z,8.38
2022-11-03T10:49:19.706Z,11.75
2022-11-03T10:51:55.075Z,10.98
2022-11-03T10:54:23.944Z,8.52
2022-11-03T10:56:51.989Z,8.23
2022-11-03T10:59:33.855Z,10.20
2022-11-03T11:02:01.522Z,13.60
2022-11-03T11:04:28.869Z,13.63
2022-11-03T11:06:55.963Z,9.57
2022-11-03T11:09:28.032Z,11.52
2022-11-03T11:12:23.227Z,7.15
2022-11-03T11:14:52.846Z,15.27
2022-11-03T11:17:37.892Z,14.55
2022-11-03T11:20:41.649Z,12.65
2022-11-03T11:26:08.803Z,14.63
2022-11-03T11:28:45.556Z,10.07
2022-11-03T11:31:32.053Z,15.63
2022-11-03T11:34:26.289Z,14.65
2022-11-03T11:36:55.975Z,14.38
2022-11-03T11:39:29.044Z,9.02
2022-11-03T11:44:43.736Z,15.68
2022-11-03T11:47:45.953Z,8.68
2022-11-03T11:50:20.806Z,12.15
2022-11-03T11:52:49.764Z,10.27
2022-11-03T11:55:38.712Z,10.95
2022-11-03T11:58:17.268Z,8.80
2022-11-03T12:01:01.799Z,9.15
2022-11-03T12:03:34.915Z,12.63
2022-11-03T12:06:02.266Z,8.25
2022-11-03T12:08:30.535Z,9.07
2022-11-03T12:11:02.570Z,10.50
2022-11-03T12:13:50.297Z,9.20
2022-11-03T12:16:38.195Z,10.15
2022-11-03T12:19:40.366Z,11.38
2022-11-03T12:22:12.653Z,8.52
2022-11-03T12:24:57.057Z,9.27
2022-11-03T12:27:27.015Z,10.50
2022-11-03T12:29:57.535Z,6.80
2022-11-03T12:32:33.656Z,7.65
2022-11-03T12:35:04.829Z,7.25
2022-11-03T12:37:31.781Z,4.68
2022-11-03T12:39:58.718Z,4.70
2022-11-03T12:42:26.359Z,7.93
2022-11-03T12:44:53.669Z,5.07
2022-11-03T12:47:21.238Z,6.95
2022-11-03T12:49:48.502Z,5.97
2022-11-03T12:52:15.660Z,5.05
2022-11-03T12:54:42.646Z,9.35
2022-11-03T12:57:09.853Z,4.65
2022-11-03T12:59:36.919Z,14.43
2022-11-03T13:02:04.754Z,5.28
2022-11-03T13:04:31.968Z,6.10
2022-11-03T13:06:58.814Z,4.40
2022-11-03T13:09:26.084Z,4.97
2022-11-03T13:12:13.308Z,9.00
2022-11-03T13:14:44.444Z,5.60
2022-11-03T13:17:13.378Z,11.63
2022-11-03T13:19:40.234Z,6.78
2022-11-03T13:22:07.130Z,7.72
2022-11-03T13:24:34.053Z,9.82
2022-11-03T13:27:01.222Z,6.43
2022-11-03T13:29:31.148Z,5.13
2022-11-03T13:32:01.095Z,8.55
2022-11-03T13:34:27.968Z,6.82
2022-11-03T13:36:55.251Z,7.88
2022-11-03T13:39:22.214Z,8.18
2022-11-03T13:41:49.095Z,5.45
2022-11-03T13:44:16.149Z,7.65
2022-11-03T13:46:43.114Z,4.15
2022-11-03T13:51:56.865Z,8.75
2022-11-03T14:00:01.918Z,7.53
2022-11-03T14:05:18.383Z,6.93
2022-11-03T14:07:45.307Z,7.35
2022-11-03T14:10:12.174Z,3.83
2022-11-03T14:12:39.130Z,5.13
2022-11-03T14:15:08.858Z,7.47
2022-11-03T14:17:36.211Z,11.95
2022-11-03T14:20:05.059Z,4.10
2022-11-03T14:22:32.536Z,4.05
2022-11-03T14:24:59.935Z,10.45
2022-11-03T14:27:26.963Z,6.88
2022-11-03T14:29:53.978Z,5.53
2022-11-03T14:32:21.134Z,9.05
2022-11-03T14:34:48.363Z,5.90
2022-11-03T14:37:15.598Z,6.00
2022-11-03T14:39:42.512Z,6.10
2022-11-03T14:42:15.707Z,5.78
2022-11-03T14:44:44.623Z,6.90
2022-11-03T14:47:14.592Z,10.82
2022-11-03T14:49:41.665Z,9.85
2022-11-03T14:52:08.808Z,8.43
2022-11-03T14:54:36.393Z,6.05
2022-11-03T14:57:04.364Z,3.70
2022-11-03T14:59:31.549Z,6.57
2022-11-03T15:01:59.205Z,6.18
2022-11-03T15:04:27.309Z,9.32
2022-11-03T15:06:54.608Z,6.13
2022-11-03T15:09:21.545Z,8.68
2022-11-03T15:11:48.617Z,5.18
2022-11-03T15:14:15.569Z,7.70
2022-11-03T15:16:43.927Z,10.93
2022-11-03T15:19:10.823Z,10.35
2022-11-03T15:21:37.719Z,6.57
2022-11-03T15:26:51.581Z,6.90
2022-11-03T15:29:18.518Z,13.48
2022-11-03T15:31:48.155Z,9.77
2022-11-03T15:34:16.896Z,6.35
2022-11-03T15:36:43.836Z,5.45
2022-11-03T15:39:10.790Z,6.10
2022-11-03T15:41:37.648Z,11.98
2022-11-03T15:44:04.577Z,14.43
2022-11-03T15:46:31.481Z,18.08
2022-11-03T15:48:58.414Z,7.80
2022-11-03T15:51:25.470Z,10.52
2022-11-03T15:53:58.121Z,10.32
2022-11-03T15:56:26.230Z,6.75
2022-11-03T15:58:53.111Z,10.15
2022-11-03T16:01:20.548Z,5.15
2022-11-03T16:03:47.682Z,7.50
2022-11-03T16:06:14.526Z,7.20
2022-11-03T16:08:41.439Z,8.57
2022-11-03T16:11:09.130Z,11.43
2022-11-03T16:13:36.323Z,10.98
2022-11-03T16:16:03.667Z,7.05
2022-11-03T16:18:30.758Z,14.10
2022-11-03T16:20:57.757Z,8.23
2022-11-03T16:23:51.035Z,10.32
2022-11-03T16:26:21.896Z,10.55
2022-11-03T16:28:54.470Z,11.95
2022-11-03T16:31:21.323Z,6.53
2022-11-03T16:33:48.702Z,8.30
2022-11-03T16:36:15.619Z,8.52
2022-11-03T16:38:42.809Z,6.18
2022-11-03T16:41:09.636Z,9.30
2022-11-03T16:43:36.617Z,11.00
2022-11-03T16:46:03.634Z,15.55
2022-11-03T16:48:30.580Z,8.35
2022-11-03T16:51:00.362Z,5.47
2022-11-03T16:53:27.289Z,9.43
2022-11-03T16:55:54.219Z,3.70
2022-11-03T16:58:21.127Z,8.38
2022-11-03T17:00:48.182Z,11.82
2022-11-03T17:03:21.149Z,11.68
2022-11-03T17:05:48.011Z,8.23
2022-11-03T17:08:46.432Z,7.35
2022-11-03T17:11:01.688Z,6.28
2022-11-03T17:13:29.804Z,9.13
2022-11-03T17:15:56.658Z,9.57
2022-11-03T17:18:23.579Z,9.30
2022-11-03T17:20:50.410Z,12.20
2022-11-03T17:23:17.811Z,8.25
2022-11-03T17:25:45.284Z,8.75
2022-11-03T17:28:13.799Z,9.63
2022-11-03T17:30:42.338Z,11.90
2022-11-03T17:33:14.281Z,5.93
2022-11-03T17:35:49.404Z,7.88
2022-11-03T17:38:17.569Z,10.68
2022-11-03T17:40:48.836Z,18.75
2022-11-03T17:43:22.606Z,15.43
2022-11-03T17:45:49.736Z,9.05
2022-11-03T17:48:16.690Z,10.23
2022-11-03T17:50:47.499Z,7.30
2022-11-03T17:53:25.335Z,9.13
2022-11-03T17:56:23.497Z,15.32
2022-11-03T17:58:46.254Z,12.70
2022-11-03T18:01:33.246Z,11.20
2022-11-03T18:04:00.246Z,9.60
2022-11-03T18:06:27.146Z,15.05
2022-11-03T18:08:54.161Z,7.05
2022-11-03T18:11:44.680Z,14.13
2022-11-03T18:14:11.714Z,8.25
2022-11-03T18:16:38.835Z,9.35
2022-11-03T18:19:09.402Z,11.63
2022-11-03T18:21:39.610Z,10.15
2022-11-03T18:24:14.533Z,9.65
2022-11-03T18:26:41.779Z,10.50
2022-11-03T18:29:09.150Z,8.95
2022-11-03T18:31:43.811Z,13.32
2022-11-03T18:34:27.753Z,9.13
2022-11-03T18:37:01.822Z,10.05
2022-11-03T18:39:32.549Z,11.32
2022-11-03T18:41:59.382Z,8.85
2022-11-03T18:44:28.497Z,8.75
2022-11-03T18:46:55.803Z,13.10
2022-11-03T18:49:30.297Z,8.13
2022-11-03T18:52:07.245Z,6.47
2022-11-03T18:54:42.532Z,10.73
2022-11-03T18:57:13.126Z,10.10
2022-11-03T18:59:44.006Z,9.57
2022-11-03T19:02:19.938Z,6.28
2022-11-03T19:04:47.432Z,8.63
2022-11-03T19:07:16.958Z,9.90
2022-11-03T19:09:44.151Z,10.98
2022-11-03T19:12:12.757Z,11.80
2022-11-03T19:14:40.975Z,12.52
2022-11-03T19:17:24.676Z,10.57
2022-11-03T19:19:53.278Z,10.25
2022-11-03T19:22:21.953Z,11.50
2022-11-03T19:24:49.095Z,10.70
2022-11-03T19:27:42.630Z,11.30
2022-11-03T19:32:41.931Z,11.00
2022-11-03T19:35:18.556Z,10.07
2022-11-03T19:37:46.770Z,6.82
2022-11-03T19:40:15.951Z,10.00
2022-11-03T19:42:42.850Z,13.93
2022-11-03T19:45:17.759Z,13.57
2022-11-03T19:48:10.568Z,15.00
2022-11-03T19:50:35.297Z,10.18
2022-11-03T19:53:04.293Z,9.82
2022-11-03T19:55:40.417Z,14.88
2022-11-03T19:58:27.151Z,10.35
2022-11-03T20:00:57.604Z,11.27
2022-11-03T20:03:25.305Z,9.25
2022-11-03T20:05:55.627Z,10.30
2022-11-03T20:08:24.903Z,14.35
2022-11-03T20:10:55.141Z,15.30
2022-11-03T20:13:28.926Z,12.27
2022-11-03T20:16:00.592Z,12.23
2022-11-03T20:18:28.119Z,13.23
2022-11-03T20:20:54.957Z,14.55
2022-11-03T20:23:30.131Z,17.08
2022-11-03T20:25:57.403Z,12.40
2022-11-03T20:28:27.610Z,119.45
2022-11-03T20:30:55.167Z,183.80
2022-11-03T20:33:24.005Z,74.82
2022-11-03T20:35:51.999Z,12.32
2022-11-03T20:38:19.756Z,15.60
2022-11-03T20:40:47.171Z,14.98
2022-11-03T20:43:44.021Z,13.18
2022-11-03T20:46:27.028Z,11.32
2022-11-03T20:48:58.286Z,10.75
2022-11-03T20:51:32.420Z,13.15
2022-11-03T20:53:59.611Z,10.20
2022-11-03T20:56:32.571Z,9.30
2022-11-03T21:01:33.306Z,8.05
2022-11-03T21:04:01.695Z,6.80
2022-11-03T21:06:30.205Z,12.55
2022-11-03T21:08:57.528Z,6.20
2022-11-03T21:11:29.845Z,7.82
2022-11-03T21:14:01.179Z,3.05
2022-11-03T21:16:48.157Z,3.65
2022-11-03T21:19:39.321Z,4.47
2022-11-03T21:25:07.323Z,2.03
2022-11-03T21:27:36.546Z,3.30
2022-11-03T21:30:07.631Z,4.85
2022-11-03T21:32:34.829Z,2.42
2022-11-03T21:35:01.872Z,2.67
2022-11-03T21:37:28.736Z,5.88
2022-11-03T21:39:55.649Z,4.90
2022-11-03T21:42:41.221Z,2.60
2022-11-03T21:45:08.910Z,3.17
2022-11-03T21:47:35.788Z,3.30
2022-11-03T21:50:03.164Z,2.33
2022-11-03T21:52:32.896Z,5.10
2022-11-03T21:55:04.317Z,4.63
2022-11-03T21:57:31.885Z,1.70
2022-11-03T21:59:59.132Z,4.13
2022-11-03T22:02:27.170Z,3.80
2022-11-03T22:04:55.500Z,3.35
2022-11-03T22:07:22.826Z,3.38
2022-11-03T22:09:49.697Z,11.95
2022-11-03T22:12:16.534Z,5.05
2022-11-03T22:15:02.037Z,2.78
2022-11-03T22:17:28.970Z,3.03
2022-11-03T22:20:14.233Z,5.85
2022-11-03T22:22:59.766Z,1.98
2022-11-03T22:25:45.284Z,2.13
2022-11-03T22:28:14.803Z,3.97
2022-11-03T22:31:00.845Z,4.88
2022-11-03T22:33:27.759Z,2.58
2022-11-03T22:36:21.508Z,3.58
2022-11-03T22:39:07.425Z,2.72
2022-11-03T22:41:54.731Z,2.97
2022-11-03T22:44:40.583Z,2.00
2022-11-03T22:47:08.536Z,2.85
2022-11-03T22:49:35.943Z,2.60
2022-11-03T22:52:03.139Z,2.80
2022-11-03T22:54:30.029Z,3.17
2022-11-03T22:56:56.911Z,2.90
2022-11-03T22:59:23.758Z,1.48
2022-11-03T23:01:50.790Z,4.38
2022-11-03T23:04:17.770Z,1.73
2022-11-03T23:06:44.658Z,3.30
2022-11-03T23:09:12.230Z,2.63
2022-11-03T23:11:39.214Z,3.08
2022-11-03T23:14:08.632Z,2.47
2022-11-03T23:16:43.043Z,3.60
2022-11-03T23:19:30.643Z,3.22
2022-11-03T23:21:57.854Z,3.40
2022-11-03T23:24:45.368Z,2.83
2022-11-03T23:27:12.879Z,1.63
2022-11-03T23:29:42.450Z,1.42
2022-11-03T23:32:09.341Z,2.70
2022-11-03T23:34:36.363Z,3.95
2022-11-03T23:37:03.480Z,4.40
2022-11-03T23:39:30.468Z,3.83
2022-11-03T23:41:57.522Z,3.22
2022-11-03T23:44:24.433Z,1.50
2022-11-03T23:47:09.793Z,1.02
2022-11-03T23:49:36.753Z,1.08
2022-11-03T23:52:03.774Z,1.40
2022-11-03T23:54:30.710Z,1.48
2022-11-03T23:57:16.409Z,2.85
